createdAt,value
2023-05-05T00:01:24.640Z,20.94
2023-05-05T00:04:26.766Z,20.94
2023-05-05T00:07:28.887Z,20.94
2023-05-05T00:10:31.239Z,20.94
2023-05-05T00:13:33.416Z,20.88
2023-05-05T00:16:35.610Z,20.88
2023-05-05T00:19:37.726Z,20.88
2023-05-05T00:22:39.868Z,20.88
2023-05-05T00:25:42.087Z,20.88
2023-05-05T00:28:44.380Z,20.88
2023-05-05T00:31:46.565Z,20.88
2023-05-05T00:34:48.702Z,20.88
2023-05-05T00:37:50.895Z,20.88
2023-05-05T00:40:52.980Z,20.81
2023-05-05T00:43:55.153Z,20.81
2023-05-05T00:46:57.453Z,20.81
2023-05-05T00:49:59.572Z,20.81
2023-05-05T00:53:03.965Z,20.81
2023-05-05T00:56:06.800Z,20.81
2023-05-05T00:59:08.934Z,20.81
2023-05-05T01:02:11.053Z,20.81
2023-05-05T01:05:15.979Z,20.81
2023-05-05T01:08:43.856Z,20.81
2023-05-05T01:11:57.822Z,20.75
2023-05-05T01:15:12.744Z,20.75
2023-05-05T01:18:37.319Z,20.81
2023-05-05T01:21:44.645Z,20.75
2023-05-05T01:25:20.873Z,20.75
2023-05-05T01:28:28.780Z,20.75
2023-05-05T01:31:40.459Z,20.75
2023-05-05T01:34:51.287Z,20.75
2023-05-05T01:38:01.426Z,20.69
2023-05-05T01:41:14.185Z,20.75
2023-05-05T01:44:18.788Z,20.69
2023-05-05T01:47:23.068Z,20.69
2023-05-05T01:50:28.242Z,20.69
2023-05-05T01:53:32.475Z,20.69
2023-05-05T01:56:38.587Z,20.69
2023-05-05T01:59:41.028Z,20.69
2023-05-05T02:02:46.837Z,20.63
2023-05-05T02:05:50.086Z,20.69
2023-05-05T02:08:53.356Z,20.63
2023-05-05T02:11:58.646Z,20.63
2023-05-05T02:15:02.632Z,20.63
2023-05-05T02:18:07.337Z,20.63
2023-05-05T02:21:09.819Z,20.63
2023-05-05T02:24:12.019Z,20.56
2023-05-05T02:27:17.520Z,20.63
2023-05-05T02:30:20.790Z,20.56
2023-05-05T02:33:24.888Z,20.56
2023-05-05T02:36:29.815Z,20.56
2023-05-05T02:39:38.104Z,20.56
2023-05-05T02:42:43.052Z,20.56
2023-05-05T02:45:45.531Z,20.56
2023-05-05T02:48:47.646Z,20.56
2023-05-05T02:51:50.091Z,20.50
2023-05-05T02:54:52.315Z,20.56
2023-05-05T02:58:02.314Z,20.56
2023-05-05T03:01:18.772Z,20.50
2023-05-05T03:04:38.828Z,20.50
2023-05-05T03:07:52.293Z,20.50
2023-05-05T03:11:01.559Z,20.50
2023-05-05T03:14:10.946Z,20.50
2023-05-05T03:17:14.624Z,20.50
2023-05-05T03:20:17.578Z,20.50
2023-05-05T03:23:21.013Z,20.50
2023-05-05T03:26:23.214Z,20.50
2023-05-05T03:29:25.488Z,20.50
2023-05-05T03:32:27.749Z,20.44
2023-05-05T03:35:29.941Z,20.44
2023-05-05T03:38:32.219Z,20.44
2023-05-05T03:41:34.657Z,20.44
2023-05-05T03:44:36.791Z,20.44
2023-05-05T03:47:38.932Z,20.44
2023-05-05T03:50:41.162Z,20.44
2023-05-05T03:53:43.307Z,20.44
2023-05-05T03:56:45.399Z,20.38
2023-05-05T03:59:47.518Z,20.44
2023-05-05T04:02:49.817Z,20.38
2023-05-05T04:05:51.926Z,20.38
2023-05-05T04:08:54.230Z,20.38
2023-05-05T04:11:56.420Z,20.38
2023-05-05T04:14:58.682Z,20.38
2023-05-05T04:18:00.872Z,20.38
2023-05-05T04:21:03.155Z,20.38
2023-05-05T04:24:05.530Z,20.38
2023-05-05T04:27:07.677Z,20.31
2023-05-05T04:30:10.746Z,20.38
2023-05-05T04:33:12.998Z,20.38
2023-05-05T04:36:15.166Z,20.38
2023-05-05T04:39:17.253Z,20.38
2023-05-05T04:42:19.349Z,20.38
2023-05-05T04:45:21.668Z,20.38
2023-05-05T04:48:24.041Z,20.38
2023-05-05T04:51:27.615Z,20.38
2023-05-05T04:54:29.724Z,20.38
2023-05-05T04:57:32.034Z,20.44
2023-05-05T05:00:35.686Z,20.38
2023-05-05T05:03:37.929Z,20.44
2023-05-05T05:06:40.025Z,20.44
2023-05-05T05:09:42.207Z,20.38
2023-05-05T05:12:44.298Z,20.44
2023-05-05T05:15:46.447Z,20.44
2023-05-05T05:18:48.550Z,20.50
2023-05-05T05:21:50.728Z,20.44
2023-05-05T05:24:52.964Z,20.38
2023-05-05T05:28:08.352Z,20.44
2023-05-05T05:31:11.734Z,20.38
2023-05-05T05:34:13.881Z,20.38
2023-05-05T05:37:15.956Z,20.38
2023-05-05T05:40:18.292Z,20.38
2023-05-05T05:43:20.500Z,20.38
2023-05-05T05:46:22.721Z,20.38
2023-05-05T05:49:24.836Z,20.38
2023-05-05T05:52:27.036Z,20.38
2023-05-05T05:55:29.330Z,20.38
2023-05-05T05:58:31.505Z,20.38
2023-05-05T06:01:34.824Z,20.38
2023-05-05T06:04:37.358Z,20.38
2023-05-05T06:07:39.644Z,20.38
2023-05-05T06:10:42.060Z,20.38
2023-05-05T06:13:47.005Z,20.31
2023-05-05T06:16:50.078Z,20.38
2023-05-05T06:19:54.534Z,20.44
2023-05-05T06:23:00.160Z,20.50
2023-05-05T06:26:02.820Z,20.50
2023-05-05T06:29:05.059Z,20.44
2023-05-05T06:32:08.368Z,20.50
2023-05-05T06:35:10.766Z,20.50
2023-05-05T06:38:13.200Z,20.50
2023-05-05T06:41:15.361Z,20.44
2023-05-05T06:44:17.465Z,20.44
2023-05-05T06:47:19.716Z,20.44
2023-05-05T06:50:21.975Z,20.50
2023-05-05T06:53:24.140Z,20.50
2023-05-05T06:56:26.288Z,20.50
2023-05-05T06:59:28.431Z,20.50
2023-05-05T07:02:30.828Z,20.56
2023-05-05T07:05:33.232Z,20.56
2023-05-05T07:08:36.206Z,20.56
2023-05-05T07:11:38.506Z,20.63
2023-05-05T07:14:40.927Z,20.69
2023-05-05T07:17:43.205Z,20.50
2023-05-05T07:20:45.288Z,20.56
2023-05-05T07:23:47.839Z,20.56
2023-05-05T07:26:49.965Z,20.50
2023-05-05T07:29:52.038Z,20.50
2023-05-05T07:32:55.280Z,20.50
2023-05-05T07:35:57.844Z,20.44
2023-05-05T07:39:00.538Z,20.44
2023-05-05T07:42:02.896Z,20.44
2023-05-05T07:45:06.766Z,20.44
2023-05-05T07:48:09.164Z,20.44
2023-05-05T07:51:11.797Z,20.38
2023-05-05T07:54:13.940Z,20.38
2023-05-05T07:57:16.679Z,20.38
2023-05-05T08:00:19.528Z,20.38
2023-05-05T08:03:24.500Z,20.38
2023-05-05T08:06:28.545Z,20.38
2023-05-05T08:09:30.712Z,20.38
2023-05-05T08:12:32.955Z,20.38
2023-05-05T08:15:35.143Z,20.38
2023-05-05T08:18:38.449Z,20.44
2023-05-05T08:21:40.579Z,20.44
2023-05-05T08:24:42.731Z,20.44
2023-05-05T08:27:45.626Z,20.44
2023-05-05T08:30:47.821Z,20.50
2023-05-05T08:33:50.150Z,20.50
2023-05-05T08:36:52.446Z,20.50
2023-05-05T08:39:54.663Z,20.50
2023-05-05T08:42:56.834Z,20.50
2023-05-05T08:45:59.592Z,20.50
2023-05-05T08:49:04.056Z,20.50
2023-05-05T08:52:08.945Z,20.50
2023-05-05T08:55:30.652Z,20.50
2023-05-05T08:58:36.423Z,20.50
2023-05-05T09:01:39.352Z,20.50
2023-05-05T09:04:41.827Z,20.50
2023-05-05T09:07:44.604Z,20.56
2023-05-05T09:10:48.976Z,20.63
2023-05-05T09:13:51.209Z,20.63
2023-05-05T09:16:53.362Z,20.63
2023-05-05T09:20:08.841Z,20.69
2023-05-05T09:23:13.699Z,20.75
2023-05-05T09:26:16.043Z,20.81
2023-05-05T09:29:22.419Z,20.75
2023-05-05T09:32:25.574Z,20.81
2023-05-05T09:35:28.086Z,20.88
2023-05-05T09:38:30.226Z,20.88
2023-05-05T09:41:40.041Z,20.88
2023-05-05T09:44:42.392Z,20.94
2023-05-05T09:47:46.054Z,20.94
2023-05-05T09:50:48.232Z,21.00
2023-05-05T09:53:50.384Z,21.06
2023-05-05T09:56:52.755Z,21.00
2023-05-05T09:59:57.375Z,20.94
2023-05-05T10:03:03.527Z,20.94
2023-05-05T10:06:07.697Z,20.94
2023-05-05T10:09:09.769Z,20.94
2023-05-05T10:12:11.834Z,20.94
2023-05-05T10:15:15.934Z,20.94
2023-05-05T10:18:26.223Z,20.94
2023-05-05T10:21:35.953Z,20.88
2023-05-05T10:24:51.230Z,20.94
2023-05-05T10:27:59.266Z,20.94
2023-05-05T10:31:10.110Z,21.00
2023-05-05T10:34:31.017Z,21.00
2023-05-05T10:37:33.596Z,21.06
2023-05-05T10:40:36.043Z,21.06
2023-05-05T10:43:38.201Z,21.13
2023-05-05T10:46:41.283Z,21.13
2023-05-05T10:49:55.075Z,21.06
2023-05-05T10:52:57.146Z,21.06
2023-05-05T10:56:34.868Z,21.06
2023-05-05T10:59:36.996Z,21.06
2023-05-05T11:02:40.294Z,21.06
2023-05-05T11:06:04.016Z,21.13
2023-05-05T11:09:28.914Z,21.06
2023-05-05T11:12:32.492Z,21.13
2023-05-05T11:15:37.752Z,21.06
2023-05-05T11:18:44.233Z,21.13
2023-05-05T11:22:02.117Z,21.13
2023-05-05T11:25:36.570Z,21.19
2023-05-05T11:29:03.174Z,21.25
2023-05-05T11:32:13.638Z,21.31
2023-05-05T11:35:16.186Z,21.25
2023-05-05T11:38:20.261Z,21.31
2023-05-05T11:41:34.361Z,21.31
2023-05-05T11:44:36.620Z,21.25
2023-05-05T11:47:38.960Z,21.31
2023-05-05T11:50:41.796Z,21.44
2023-05-05T11:53:48.517Z,21.44
2023-05-05T11:56:51.477Z,21.50
2023-05-05T11:59:59.686Z,21.56
2023-05-05T12:03:02.009Z,21.63
2023-05-05T12:06:05.701Z,21.69
2023-05-05T12:09:18.748Z,21.75
2023-05-05T12:12:21.545Z,21.75
2023-05-05T12:15:30.939Z,21.81
2023-05-05T12:18:32.986Z,21.81
2023-05-05T12:21:36.242Z,21.81
2023-05-05T12:24:38.410Z,21.69
2023-05-05T12:27:41.264Z,21.63
2023-05-05T12:30:43.456Z,21.56
2023-05-05T12:33:46.385Z,21.63
2023-05-05T12:36:48.870Z,21.56
2023-05-05T12:39:51.481Z,21.50
2023-05-05T12:42:53.770Z,21.44
2023-05-05T12:46:06.569Z,21.44
2023-05-05T12:49:09.669Z,21.38
2023-05-05T12:52:11.724Z,21.31
2023-05-05T12:55:13.994Z,21.25
2023-05-05T12:58:16.063Z,21.25
2023-05-05T13:01:18.178Z,21.19
2023-05-05T13:04:22.925Z,21.25
2023-05-05T13:07:25.082Z,21.31
2023-05-05T13:10:28.020Z,21.25
2023-05-05T13:13:32.478Z,21.31
2023-05-05T13:16:34.730Z,21.31
2023-05-05T13:19:41.889Z,21.31
2023-05-05T13:22:45.216Z,21.19
2023-05-05T13:25:47.342Z,21.19
2023-05-05T13:28:49.368Z,21.19
2023-05-05T13:31:51.413Z,21.19
2023-05-05T13:34:53.520Z,21.19
2023-05-05T13:37:55.609Z,21.19
2023-05-05T13:40:57.715Z,21.13
2023-05-05T13:43:59.808Z,21.13
2023-05-05T13:47:02.125Z,21.13
2023-05-05T13:50:04.922Z,21.13
2023-05-05T13:53:07.264Z,21.06
2023-05-05T13:56:09.539Z,21.06
2023-05-05T13:59:11.653Z,21.06
2023-05-05T14:02:13.737Z,21.06
2023-05-05T14:05:16.260Z,21.00
2023-05-05T14:08:19.850Z,21.00
2023-05-05T14:11:21.919Z,20.94
2023-05-05T14:14:23.968Z,20.94
2023-05-05T14:17:26.063Z,21.00
2023-05-05T14:20:28.193Z,20.94
2023-05-05T14:23:30.291Z,20.94
2023-05-05T14:26:32.383Z,20.94
2023-05-05T14:29:34.667Z,20.94
2023-05-05T14:32:36.847Z,20.88
2023-05-05T14:35:38.902Z,20.88
2023-05-05T14:38:42.709Z,20.88
2023-05-05T14:41:44.904Z,20.88
2023-05-05T14:44:46.909Z,20.88
2023-05-05T14:47:48.976Z,20.88
2023-05-05T14:50:51.114Z,20.88
2023-05-05T14:53:55.556Z,20.88
2023-05-05T14:56:58.296Z,20.88
2023-05-05T15:00:00.376Z,20.81
2023-05-05T15:03:02.537Z,20.88
2023-05-05T15:06:05.485Z,20.81
2023-05-05T15:09:07.517Z,20.81
2023-05-05T15:12:09.669Z,20.81
2023-05-05T15:15:12.023Z,20.81
2023-05-05T15:18:14.247Z,20.81
2023-05-05T15:21:16.292Z,20.81
2023-05-05T15:24:18.671Z,20.81
2023-05-05T15:27:20.718Z,20.81
2023-05-05T15:30:22.754Z,20.81
2023-05-05T15:33:25.097Z,20.81
2023-05-05T15:36:28.654Z,20.81
2023-05-05T15:39:30.756Z,20.81
2023-05-05T15:42:33.812Z,20.81
2023-05-05T15:45:36.211Z,20.81
2023-05-05T15:48:38.211Z,20.81
2023-05-05T15:51:40.334Z,20.81
2023-05-05T15:54:42.465Z,20.81
2023-05-05T15:57:44.577Z,20.75
2023-05-05T16:00:46.887Z,20.75
2023-05-05T16:03:49.213Z,20.81
2023-05-05T16:06:51.397Z,20.81
2023-05-05T16:09:53.563Z,20.81
2023-05-05T16:12:56.019Z,20.81
2023-05-05T16:15:58.130Z,20.81
2023-05-05T16:19:00.186Z,20.81
2023-05-05T16:22:02.644Z,20.81
2023-05-05T16:25:05.121Z,20.75
2023-05-05T16:28:07.185Z,20.81
2023-05-05T16:31:10.632Z,20.81
2023-05-05T16:34:12.980Z,20.81
2023-05-05T16:37:15.009Z,20.81
2023-05-05T16:40:17.094Z,20.81
2023-05-05T16:43:19.679Z,20.81
2023-05-05T16:46:21.965Z,20.81
2023-05-05T16:49:24.286Z,20.88
2023-05-05T16:52:26.369Z,20.88
2023-05-05T16:55:28.500Z,20.81
2023-05-05T16:58:30.528Z,20.81
2023-05-05T17:01:34.666Z,20.81
2023-05-05T17:04:36.783Z,20.75
2023-05-05T17:07:38.911Z,20.81
2023-05-05T17:10:45.408Z,20.75
2023-05-05T17:13:47.554Z,20.75
2023-05-05T17:16:54.654Z,20.75
2023-05-05T17:19:57.167Z,20.75
2023-05-05T17:23:00.222Z,20.75
2023-05-05T17:26:03.061Z,20.69
2023-05-05T17:29:05.208Z,20.75
2023-05-05T17:32:08.949Z,20.69
2023-05-05T17:35:11.590Z,20.69
2023-05-05T17:38:13.881Z,20.69
2023-05-05T17:41:16.561Z,20.69
2023-05-05T17:44:18.602Z,20.69
2023-05-05T17:47:22.342Z,20.69
2023-05-05T17:50:24.619Z,20.69
2023-05-05T17:53:26.708Z,20.69
2023-05-05T17:56:28.761Z,20.69
2023-05-05T17:59:32.037Z,20.69
2023-05-05T18:02:37.114Z,20.63
2023-05-05T18:05:39.307Z,20.63
2023-05-05T18:08:41.561Z,20.56
2023-05-05T18:11:43.756Z,20.56
2023-05-05T18:14:45.773Z,20.63
2023-05-05T18:17:48.059Z,20.63
2023-05-05T18:20:50.177Z,20.56
2023-05-05T18:23:57.340Z,20.56
2023-05-05T18:27:07.522Z,20.56
2023-05-05T18:30:09.845Z,20.56
2023-05-05T18:33:11.933Z,20.56
2023-05-05T18:36:13.957Z,20.56
2023-05-05T18:39:16.073Z,20.56
2023-05-05T18:42:18.100Z,20.50
2023-05-05T18:45:20.621Z,20.56
2023-05-05T18:48:23.064Z,20.56
2023-05-05T18:51:26.157Z,20.56
2023-05-05T18:54:28.956Z,20.50
2023-05-05T18:57:31.009Z,20.50
2023-05-05T19:00:33.146Z,20.50
2023-05-05T19:03:35.604Z,20.50
2023-05-05T19:06:39.705Z,20.50
2023-05-05T19:09:41.954Z,20.44
2023-05-05T19:12:44.366Z,20.50
2023-05-05T19:15:46.580Z,20.50
2023-05-05T19:18:48.688Z,20.50
2023-05-05T19:21:51.007Z,20.56
2023-05-05T19:24:53.043Z,20.56
2023-05-05T19:27:55.111Z,20.50
2023-05-05T19:30:57.175Z,20.56
2023-05-05T19:34:02.367Z,20.56
2023-05-05T19:37:04.816Z,20.56
2023-05-05T19:40:08.395Z,20.56
2023-05-05T19:43:10.735Z,20.56
2023-05-05T19:46:14.076Z,20.56
2023-05-05T19:49:16.389Z,20.63
2023-05-05T19:52:18.747Z,20.56
2023-05-05T19:55:21.992Z,20.63
2023-05-05T19:58:24.291Z,20.56
2023-05-05T20:01:27.687Z,20.56
2023-05-05T20:04:29.919Z,20.56
2023-05-05T20:07:32.125Z,20.50
2023-05-05T20:10:34.559Z,20.44
2023-05-05T20:13:38.236Z,20.50
2023-05-05T20:16:41.014Z,20.44
2023-05-05T20:19:43.163Z,20.44
2023-05-05T20:22:46.483Z,20.44
2023-05-05T20:25:48.696Z,20.44
2023-05-05T20:28:51.071Z,20.38
2023-05-05T20:31:53.184Z,20.38
2023-05-05T20:34:55.513Z,20.38
2023-05-05T20:37:57.699Z,20.38
2023-05-05T20:40:59.884Z,20.38
2023-05-05T20:44:02.097Z,20.38
2023-05-05T20:47:04.794Z,20.31
2023-05-05T20:50:07.924Z,20.31
2023-05-05T20:53:11.849Z,20.38
2023-05-05T20:56:14.041Z,20.31
2023-05-05T20:59:18.872Z,20.31
2023-05-05T21:02:21.213Z,20.31
2023-05-05T21:05:24.196Z,20.31
2023-05-05T21:08:26.746Z,20.31
2023-05-05T21:11:28.803Z,20.31
2023-05-05T21:14:30.951Z,20.25
2023-05-05T21:17:33.301Z,20.25
2023-05-05T21:20:35.761Z,20.31
2023-05-05T21:23:37.848Z,20.25
2023-05-05T21:26:44.030Z,20.25
2023-05-05T21:29:46.160Z,20.25
2023-05-05T21:32:48.335Z,20.25
2023-05-05T21:35:50.517Z,20.25
2023-05-05T21:38:55.532Z,20.25
2023-05-05T21:41:58.153Z,20.25
2023-05-05T21:45:00.204Z,20.25
2023-05-05T21:48:02.474Z,20.25
2023-05-05T21:51:04.554Z,20.25
2023-05-05T21:54:06.918Z,20.25
2023-05-05T21:57:09.088Z,20.19
2023-05-05T22:00:16.483Z,20.25
2023-05-05T22:03:18.831Z,20.19
2023-05-05T22:06:21.188Z,20.19
2023-05-05T22:09:23.326Z,20.19
2023-05-05T22:12:25.709Z,20.19
2023-05-05T22:15:32.656Z,20.19
2023-05-05T22:18:38.101Z,20.19
2023-05-05T22:21:40.192Z,20.19
2023-05-05T22:24:42.215Z,20.19
2023-05-05T22:27:44.353Z,20.19
2023-05-05T22:30:46.601Z,20.19
2023-05-05T22:33:48.736Z,20.19
2023-05-05T22:36:50.861Z,20.13
2023-05-05T22:39:52.907Z,20.13
2023-05-05T22:42:55.186Z,20.19
2023-05-05T22:45:57.245Z,20.13
2023-05-05T22:48:59.376Z,20.13
2023-05-05T22:52:02.156Z,20.13
2023-05-05T22:55:04.595Z,20.13
2023-05-05T22:58:06.664Z,20.13
2023-05-05T23:01:08.884Z,20.13
2023-05-05T23:04:10.966Z,20.13
2023-05-05T23:07:13.585Z,20.13
2023-05-05T23:10:15.694Z,20.13
2023-05-05T23:13:17.876Z,20.13
2023-05-05T23:16:20.004Z,20.06
2023-05-05T23:19:22.056Z,20.06
2023-05-05T23:22:24.119Z,20.06
2023-05-05T23:25:26.200Z,20.06
2023-05-05T23:28:28.234Z,20.06
2023-05-05T23:31:30.710Z,20.06
2023-05-05T23:34:32.776Z,20.06
2023-05-05T23:37:34.776Z,20.06
2023-05-05T23:40:36.829Z,20.06
2023-05-05T23:43:38.886Z,20.06
2023-05-05T23:46:40.974Z,20.06
2023-05-05T23:49:43.089Z,20.06
2023-05-05T23:52:45.712Z,20.00
2023-05-05T23:55:47.804Z,20.06
2023-05-05T23:58:50.306Z,20.06
